Los datos mostrados corresponden al resumen diario obtenido de los registros semihorarios entre las 0:00 y las 24:00 h, en horario solar.
| Estación | Fecha | V Km/h | DV | Vx Km/h | T ºC | Tn ºC | Tx ºC | H frío | HR % | Rad MJ/m2 día | H sol | P mm | ETo mm |
|---|---|---|---|---|---|---|---|---|---|---|---|---|---|
| Almoradí | 07/05/2026 | 4.01 | NE | 15.07 | 16.2 | 12.64 | 20.25 | 0 | 87 | 7.6 | 9.01 | 33 | 1.78 |
| Elx | 07/05/2026 | 3.86 | N | 18.71 | 17.55 | 12.77 | 23.44 | 0 | 75.95 | 14.98 | 9.63 | 12.6 | 3 |
| Callosa d'En Sarrià | 06/05/2026 | 2.37 | SE | 11.19 | 17.56 | 12.97 | 22.21 | 0 | 67.74 | 17.37 | 11.23 | 0 | 3.11 |
| Callosa d'En Sarrià (malla) | 06/05/2026 | 1.83 | E | 9.1 | 18.5 | 13.74 | 23.15 | 0 | 52.94 | 13.05 | 10.32 | 0 | 2.7 |
| Catral | 07/05/2026 | 3.82 | NE | 24.13 | 16.72 | 11.75 | 22.96 | 0 | 79.3 | 12.76 | 9.63 | 15.33 | 2.63 |
| Altea | 07/05/2026 | 5.01 | N | 20.53 | 17.21 | 12.87 | 23.28 | 0 | 69.75 | 16.64 | 10.15 | 8.91 | 3.37 |
| Planes | 07/05/2026 | 1.26 | SE | 9.1 | 12.89 | 7.64 | 21.81 | 0 | 89.1 | 12.09 | 7.68 | 1.8 | 2.14 |
| Villena | 07/05/2026 | 5.72 | N | 20.36 | 13.02 | 9.13 | 18.33 | 0 | 87 | 9.57 | 9.33 | 11.07 | 2.15 |
| Camp de Mirra | 07/05/2026 | 7.35 | NE | 22.09 | 11.79 | 8.23 | 16.48 | 0 | 92 | 9.79 | 8.21 | 22.49 | 1.91 |
| Agost | 07/05/2026 | 3.9 | NE | 19.33 | 14.98 | 10.24 | 21.99 | 0 | 54.5 | 15.12 | 9.05 | 22.85 | 3.33 |
| Orihuela - La Murada | 07/05/2026 | 4.29 | NE | 16.97 | 15.94 | 11.39 | 20.5 | 0 | 75.7 | 11.42 | 10.99 | 0 | 2.45 |
| Villajoyosa | 07/05/2026 | 4.44 | NE | 21.31 | 17.28 | 13.02 | 23.28 | 0 | 65.94 | 16.05 | 10.51 | 1.78 | 3.3 |
| Ondara | 07/05/2026 | 3.87 | NO | 16.58 | 15.81 | 11.19 | 21.1 | 0 | 85.8 | 12.32 | 9.99 | 24.68 | 2.34 |
| Dénia | 07/05/2026 | 4.03 | O | 15.77 | 15.1 | 10.59 | 20.91 | 0 | 83.9 | 12.79 | 8.91 | 32.86 | 2.41 |
| Pinoso | 07/05/2026 | 5.37 | N | 18.52 | 12.28 | 8.47 | 18.23 | 0 | 85.5 | 10.4 | 10.33 | 11.34 | 2.33 |
| Monforte del Cid | 07/05/2026 | 4.67 | E | 20.18 | 15.72 | 11.13 | 21.58 | 0 | 73.7 | 15.45 | 10.86 | 0.59 | 3.09 |
| Crevillent | 07/05/2026 | 4.93 | NE | 24.62 | 17.39 | 12.64 | 22.59 | 0 | 73.6 | 14.32 | 10.62 | 30.81 | 3.08 |
| Vall d'Uixó | 07/05/2026 | 3.48 | N | 14.08 | 15.96 | 10.12 | 22.03 | 0 | 70.2 | 16.72 | 11.87 | 0 | 3.04 |
| Vila-real | 07/05/2026 | 6.93 | N | 19 | 16.98 | 12.09 | 22.76 | 0 | 71.69 | 21.88 | 11.49 | 0 | 4.08 |
| Onda | 07/05/2026 | 5.58 | NO | 17.64 | 15.41 | 10.16 | 21.34 | 0 | 75.9 | 16.06 | 10.68 | 0 | 3.06 |
| San Rafael del Río | 07/05/2026 | 4.4 | NE | 15.84 | 14.29 | 8.48 | 19.29 | 0 | 86.5 | 15.15 | 11.54 | 8.89 | 2.52 |
| Castelló de la Plana | 07/05/2026 | 4 | NO | 14.18 | 15.71 | 10.22 | 23.07 | 0 | 81.2 | 21.77 | 10.8 | 17.71 | 3.69 |
| Ribera de Cabanes | 07/05/2026 | 3.55 | N | 19.83 | 16.74 | 11.38 | 21.63 | 0 | 63.65 | 23.45 | 11.43 | 0 | 3.85 |
| Nules | 07/05/2026 | 5.02 | NE | 18.1 | 15.72 | 8.41 | 22.17 | 0 | 75 | 17.52 | 12.09 | 0 | 3.26 |
| Segorbe | 07/05/2026 | 1.65 | SE | 14.29 | 11.97 | 4.92 | 20.16 | 4.5 | 84.4 | 13.36 | 9.02 | 0 | 2.27 |
| Pedralba | 07/05/2026 | 2.71 | NO | 15.8 | 13.46 | 9.34 | 19.62 | 0 | 84.3 | 9.75 | 8.41 | 8.71 | 1.99 |
| Benavites | 07/05/2026 | 4.5 | N | 18.13 | 15.48 | 9.27 | 20.8 | 0 | 79.5 | 16.58 | 11.82 | 0 | 2.88 |
| Moncada | 07/05/2026 | 6.16 | N | 24.21 | 15.42 | 8.61 | 21.26 | 0 | 76.67 | 17.4 | 10.91 | 5.8 | 3.21 |
| Carcaixent | 07/05/2026 | 2.55 | N | 19.34 | 15.58 | 9.53 | 22.95 | 0 | 84.9 | 11.03 | 10.04 | 1.8 | 2.24 |
| Carlet | 07/05/2026 | 4.16 | N | 16.87 | 15.69 | 11.46 | 20.46 | 0 | 83.6 | 13.39 | 11.06 | 1.8 | 2.56 |
| Llutxent | 07/05/2026 | 5.07 | N | 27.79 | 14 | 10.81 | 19.17 | 0 | 85.7 | 13.31 | 9.49 | 2.6 | 2.48 |
| Requena | 07/05/2026 | 5.17 | N | 31.79 | 10.85 | 6.58 | 17.21 | 1 | 80.1 | 12.27 | 9.37 | 1.3 | 2.34 |
| Algimia de Alfara | 07/05/2026 | 4.1 | NE | 18.73 | 14.9 | 9 | 21.36 | 0 | 76.05 | 14.82 | 0 | 2.64 | 2.82 |
| Valencia - UPV | 07/05/2026 | 4.39 | N | 19.05 | 16.27 | 11.83 | 20.46 | 0 | 74.43 | 15.17 | 11.39 | 4.49 | 2.85 |
| Algemesí | 07/05/2026 | 3.34 | N | 16.86 | 14.6 | 10.34 | 19.18 | 0 | 88.4 | 6.89 | 8.31 | 20.6 | 1.68 |
| Picassent | 07/05/2026 | 2.25 | NE | 17.57 | 14.5 | 9.28 | 19.8 | 0 | 85.5 | 11.49 | 10.55 | 7.72 | 2.15 |
| Montesa | 07/05/2026 | 1.98 | N | 17.07 | 14.09 | 10.51 | 19.22 | 0 | 87.8 | 10.33 | 7.03 | 5.3 | 1.95 |
| Xàtiva | 07/05/2026 | 1.88 | N | 16.44 | 14.65 | 11.03 | 21 | 0 | 88.2 | 10.68 | 6.57 | 12.6 | 2.05 |
| Llíria | 07/05/2026 | 3.72 | N | 21.73 | 13.88 | 7.8 | 21.12 | 0 | 78.2 | 14.1 | 9.91 | 13.26 | 2.74 |
| Sagunt | 07/05/2026 | 7.98 | N | 20.64 | 16.15 | 13.18 | 20.68 | 0 | 70.8 | 13.79 | 10.49 | 5.86 | 3.1 |
| Campo Arcís | 07/05/2026 | 3.47 | E | 22.33 | 11.49 | 6.62 | 19.27 | 1 | 83.7 | 13.1 | 7.96 | 4.55 | 2.46 |
| Villalonga | 07/05/2026 | 3.06 | NO | 18.13 | 16.1 | 12.46 | 22.19 | 0 | 89.7 | 12.34 | 9.34 | 16.35 | 2.32 |
| Gandía | 07/05/2026 | 2.75 | N | 17.96 | 15.58 | 10.34 | 21.24 | 0 | 84.1 | 13.13 | 9.55 | 10.39 | 2.44 |
| Bolbaite | 07/05/2026 | 3.29 | N | 16.16 | 14.25 | 10.12 | 19.53 | 0 | 85.9 | 8.58 | 7.13 | 1.03 | 1.9 |
| Bétera | 07/05/2026 | 5.75 | N | 30.67 | 14.82 | 7.95 | 20.93 | 0 | 78.5 | 18.67 | 10.96 | 7 | 3.3 |
| Chulilla | 07/05/2026 | 2.92 | SO | 15.84 | 12.66 | 8.7 | 18.33 | 0 | 83.3 | 10.32 | 10.49 | 4.18 | 2.04 |
| Godelleta | 07/05/2026 | 2.55 | O | 16.65 | 13.53 | 7.74 | 19.06 | 0 | 87.3 | 9.43 | 9.89 | 6.43 | 1.89 |
| Bèlgida | 07/05/2026 | 2.98 | SE | 19.33 | 14.28 | 10.88 | 21.35 | 0 | 88.4 | 13.4 | 7.6 | 1.19 | 2.45 |
| Polinyà de Xúquer | 07/05/2026 | 2.29 | N | 16.65 | 14.97 | 11.02 | 19.19 | 0 | 89.9 | 6.67 | 7.16 | 22.69 | 1.54 |
| Benifaió | 07/05/2026 | 2.49 | N | 17.85 | 15.32 | 11.71 | 20.02 | 0 | 83.1 | 9.38 | 9.86 | 10.96 | 1.95 |
| Cheste | 07/05/2026 | 1.72 | NO | 14.54 | 12.68 | 7.8 | 19.29 | 0 | 85.2 | 9.94 | 8.06 | 28.9 | 1.94 |
| Tavernes de la Valldigna | 07/05/2026 | 3.4 | NE | 17.04 | 16.33 | 11.1 | 21.86 | 0 | 83.2 | 15.47 | 10.3 | 4.98 | 2.74 |
| Castelló | 07/05/2026 | 2.71 | O | 16.48 | 15.29 | 11.02 | 20.78 | 0 | 83.9 | 8.51 | 7.01 | 3.42 | 1.89 |
© Copyright 2011, Instituto Valenciano de Investigaciones Agrarias.
Los datos meteorológicos ofrecidos es esta página son informativos, por lo que carecen de carácter oficial. Los datos son publicados automáticamente y, por lo tanto, pueden no estar sujetos a una completa validación.
|
Cargando ...espere por favor... |